Time;durP1;ratioP1;P1;durP2;ratioP2;P2;SDS_P1;SDS_P2;PMS_P1;PMS_P2;Temp;Humidity;BMP_temperature;BMP_pressure;BME280_temperature;BME280_humidity;BME280_pressure;Samples;Min_cycle;Max_cycle;Signal;HPM_P1;HPM_P2
2022/01/23 00:01:41;;;;;;;28.07;17.30;;;5.80;99.90;;;;;;5020654;28;20474;-71
2022/01/23 00:04:06;;;;;;;37.67;18.20;;;6.10;99.90;;;;;;5029806;28;20862;-71
2022/01/23 00:06:32;;;;;;;27.40;16.53;;;5.70;99.90;;;;;;5029269;28;20448;-72
2022/01/23 00:08:57;;;;;;;31.43;16.87;;;5.60;99.90;;;;;;5028438;28;20209;-71
2022/01/23 00:11:26;;;;;;;32.47;17.37;;;5.80;99.90;;;;;;5028620;28;20703;-71
2022/01/23 00:19:10;;;;;;;30.87;17.07;;;5.70;99.90;;;;;;5041939;28;20474;-72
2022/01/23 00:21:39;;;;;;;36.70;17.17;;;5.60;99.90;;;;;;5048323;28;20439;-71
2022/01/23 00:31:58;;;;;;;27.43;16.70;;;5.70;99.90;;;;;;5029367;28;21008;-71
2022/01/23 00:34:23;;;;;;;35.70;17.97;;;5.70;99.90;;;;;;5029545;28;20507;-71
2022/01/23 00:36:49;;;;;;;34.43;17.97;;;5.70;99.90;;;;;;5029922;28;20166;-71
2022/01/23 00:39:14;;;;;;;40.83;22.43;;;5.60;99.90;;;;;;5029945;28;20165;-70
2022/01/23 00:41:40;;;;;;;36.00;19.60;;;5.70;99.90;;;;;;5026547;28;20229;-71
2022/01/23 00:44:06;;;;;;;32.87;18.17;;;5.70;99.90;;;;;;5027169;28;20185;-71
2022/01/23 00:51:28;;;;;;;33.07;18.10;;;5.70;99.90;;;;;;5028855;28;20217;-71
2022/01/23 00:53:55;;;;;;;27.33;16.50;;;5.70;99.90;;;;;;5028515;28;20499;-71
2022/01/23 00:56:21;;;;;;;31.90;17.87;;;5.80;99.90;;;;;;5027538;28;20495;-72
2022/01/23 00:58:47;;;;;;;28.90;16.63;;;5.70;99.90;;;;;;5028648;28;20547;-70
2022/01/23 01:01:14;;;;;;;29.53;17.60;;;5.70;99.90;;;;;;5027225;28;20730;-71
2022/01/23 01:03:41;;;;;;;31.43;16.60;;;5.70;99.90;;;;;;5028428;28;20185;-72
2022/01/23 01:06:06;;;;;;;31.10;16.60;;;5.70;99.90;;;;;;5029285;28;20444;-71
2022/01/23 01:08:32;;;;;;;32.73;17.50;;;5.90;99.90;;;;;;5028911;28;20471;-72
2022/01/23 01:11:29;;;;;;;31.07;17.30;;;5.80;99.90;;;;;;5027761;28;20189;-71
2022/01/23 01:35:14;;;;;;;31.73;17.10;;;5.70;99.90;;;;;;5033073;28;20428;-71
2022/01/23 01:37:39;;;;;;;30.43;17.43;;;8.40;99.90;;;;;;5034057;28;20913;-73
2022/01/23 01:40:06;;;;;;;38.10;18.53;;;5.80;99.90;;;;;;5027991;28;20420;-71
2022/01/23 01:42:31;;;;;;;35.13;17.40;;;5.80;99.90;;;;;;5026782;28;20178;-70
2022/01/23 01:44:57;;;;;;;34.80;17.63;;;5.90;99.90;;;;;;5027079;28;20443;-71
2022/01/23 01:47:22;;;;;;;37.33;18.20;;;6.30;99.90;;;;;;5034192;28;20178;-72
2022/01/23 01:49:48;;;;;;;34.40;17.30;;;6.50;99.90;;;;;;5038174;28;20263;-71
2022/01/23 01:52:13;;;;;;;31.57;19.00;;;6.00;99.90;;;;;;5027000;28;20212;-71
2022/01/23 01:54:39;;;;;;;32.17;17.47;;;6.30;99.90;;;;;;5027761;28;20568;-71
2022/01/23 01:57:07;;;;;;;28.93;17.40;;;6.30;99.90;;;;;;5026430;28;20180;-71
2022/01/23 02:10:36;;;;;;;31.23;19.23;;;5.70;99.90;;;;;;5026796;28;20601;-70
2022/01/23 02:13:10;;;;;;;36.57;18.67;;;5.70;99.90;;;;;;5026010;28;20421;-72
2022/01/23 02:16:04;;;;;;;38.07;18.50;;;5.70;99.90;;;;;;5026851;28;21169;-70
2022/01/23 02:51:43;;;;;;;38.10;19.20;;;5.60;99.90;;;;;;5016444;28;20448;-71
2022/01/23 02:56:48;;;;;;;36.60;18.30;;;5.60;99.90;;;;;;5032949;28;20428;-71
2022/01/23 02:59:29;;;;;;;31.17;18.10;;;5.60;99.90;;;;;;5033767;28;20420;-71
2022/01/23 03:04:23;;;;;;;38.20;19.53;;;5.80;99.90;;;;;;5033282;28;20424;-70
2022/01/23 03:24:59;;;;;;;35.90;19.00;;;5.70;99.90;;;;;;5033639;28;20798;-71
2022/01/23 03:27:47;;;;;;;34.00;19.60;;;5.70;99.90;;;;;;5032641;28;20427;-70
2022/01/23 03:30:29;;;;;;;36.03;19.60;;;5.70;99.90;;;;;;5033193;28;20467;-70
2022/01/23 03:32:55;;;;;;;33.50;18.40;;;5.60;99.90;;;;;;5031763;28;20435;-72
2022/01/23 03:35:22;;;;;;;37.43;19.23;;;5.70;99.90;;;;;;5033384;28;20404;-69
2022/01/23 03:37:48;;;;;;;34.93;19.53;;;6.10;99.90;;;;;;5033440;28;20170;-70
2022/01/23 03:40:14;;;;;;;39.67;19.73;;;5.70;99.90;;;;;;5035527;28;20516;-70
2022/01/23 03:42:42;;;;;;;36.67;19.73;;;6.00;99.90;;;;;;5032107;28;21132;-71
2022/01/23 03:50:36;;;;;;;35.77;19.27;;;5.70;99.90;;;;;;5029705;28;20454;-72
2022/01/23 03:53:02;;;;;;;40.50;20.97;;;5.80;99.90;;;;;;5030029;28;20425;-72
2022/01/23 03:55:28;;;;;;;31.87;19.50;;;5.70;99.90;;;;;;5028408;28;20269;-71
2022/01/23 03:57:53;;;;;;;33.67;19.40;;;5.70;99.90;;;;;;5029290;28;20178;-71
2022/01/23 04:00:19;;;;;;;37.30;19.10;;;5.70;99.90;;;;;;5029649;28;20206;-71
2022/01/23 04:02:45;;;;;;;35.23;17.83;;;5.70;99.90;;;;;;5028881;28;20189;-71
2022/01/23 04:05:10;;;;;;;37.17;18.57;;;5.70;99.90;;;;;;5037115;28;20178;-70
2022/01/23 04:07:37;;;;;;;37.33;19.60;;;5.70;99.90;;;;;;5032793;28;20182;-71
2022/01/23 04:10:04;;;;;;;40.17;19.63;;;5.70;99.90;;;;;;5030068;28;20351;-71
2022/01/23 04:15:07;;;;;;;34.07;18.17;;;5.80;99.90;;;;;;5030250;28;20934;-72
2022/01/23 05:00:47;;;;;;;37.47;18.90;;;5.40;99.90;;;;;;5028180;28;20503;-70
2022/01/23 05:05:50;;;;;;;36.97;19.33;;;5.40;99.90;;;;;;5039819;28;20410;-71
2022/01/23 05:08:18;;;;;;;35.10;19.03;;;5.40;99.90;;;;;;5026696;28;20717;-71
2022/01/23 05:10:45;;;;;;;40.63;20.60;;;5.50;99.90;;;;;;5027779;28;20478;-71
2022/01/23 05:13:11;;;;;;;38.93;19.70;;;5.50;99.90;;;;;;5027242;28;20452;-72
2022/01/23 05:15:37;;;;;;;31.80;18.77;;;5.50;99.90;;;;;;5027662;28;20445;-71
2022/01/23 05:18:03;;;;;;;39.83;20.80;;;5.50;99.90;;;;;;5028710;28;20182;-71
2022/01/23 05:20:29;;;;;;;36.40;20.37;;;5.60;99.90;;;;;;5028449;28;20667;-70
2022/01/23 05:23:02;;;;;;;36.40;20.97;;;5.60;99.90;;;;;;5028511;28;20790;-71
2022/01/23 05:25:30;;;;;;;35.27;19.73;;;5.60;99.90;;;;;;5027944;28;20412;-71
2022/01/23 05:27:56;;;;;;;40.57;20.50;;;5.60;99.90;;;;;;5025441;28;20428;-71
2022/01/23 05:30:22;;;;;;;35.87;20.53;;;5.70;99.90;;;;;;5027492;28;20464;-69
2022/01/23 05:32:48;;;;;;;34.80;19.00;;;5.70;99.90;;;;;;5024892;28;20175;-70
2022/01/23 05:35:17;;;;;;;38.43;20.07;;;5.70;99.90;;;;;;5024916;28;20446;-70
2022/01/23 05:37:43;;;;;;;36.17;20.13;;;5.70;99.90;;;;;;5028532;28;20170;-70
2022/01/23 05:40:12;;;;;;;33.87;19.30;;;5.60;99.90;;;;;;5028410;28;20907;-70
2022/01/23 05:42:38;;;;;;;40.60;22.20;;;5.60;99.90;;;;;;5026031;28;20261;-70
2022/01/23 05:45:04;;;;;;;38.60;21.80;;;5.60;99.90;;;;;;5026041;28;20550;-71
2022/01/23 05:47:30;;;;;;;39.73;21.90;;;5.60;99.90;;;;;;5026998;28;20182;-71
2022/01/23 05:49:55;;;;;;;37.53;20.50;;;5.50;99.90;;;;;;5027995;28;20470;-70
2022/01/23 05:52:21;;;;;;;38.07;20.57;;;5.50;99.90;;;;;;5028138;28;20185;-71
2022/01/23 05:54:46;;;;;;;36.60;20.97;;;5.50;99.90;;;;;;5027767;28;20227;-71
2022/01/23 05:57:12;;;;;;;41.67;20.50;;;5.50;99.90;;;;;;5026630;28;20190;-71
2022/01/23 05:59:38;;;;;;;36.03;19.40;;;5.50;99.90;;;;;;5028253;28;20213;-72
2022/01/23 06:02:03;;;;;;;39.23;21.40;;;5.50;99.90;;;;;;5025559;28;20193;-71
2022/01/23 06:04:29;;;;;;;39.47;20.87;;;5.50;99.90;;;;;;5030638;28;20230;-70
2022/01/23 06:06:59;;;;;;;44.10;20.50;;;5.50;99.90;;;;;;5025703;28;20178;-70
2022/01/23 06:09:25;;;;;;;37.50;20.17;;;5.50;99.90;;;;;;5027686;28;20699;-70
2022/01/23 06:11:52;;;;;;;36.73;20.30;;;5.60;99.90;;;;;;5026979;28;20428;-71
2022/01/23 06:14:18;;;;;;;39.23;19.77;;;5.70;99.90;;;;;;5019016;28;20413;-70
2022/01/23 06:16:44;;;;;;;41.63;21.70;;;6.10;99.90;;;;;;5014597;28;20562;-70
2022/01/23 06:19:10;;;;;;;37.10;20.77;;;5.70;99.90;;;;;;5028153;28;20491;-70
2022/01/23 06:21:35;;;;;;;36.67;19.93;;;5.50;99.90;;;;;;5027766;28;20190;-72
2022/01/23 06:24:36;;;;;;;35.37;19.50;;;5.50;99.90;;;;;;5027795;28;20222;-70
2022/01/23 06:26:58;;;;;;;38.77;20.70;;;5.50;99.90;;;;;;5025562;28;20201;-71
2022/01/23 06:29:25;;;;;;;42.53;20.90;;;5.60;99.90;;;;;;5027592;28;20464;-71
2022/01/23 06:31:53;;;;;;;35.30;20.30;;;5.50;99.90;;;;;;5026899;28;20444;-70
2022/01/23 06:34:19;;;;;;;35.07;19.77;;;5.50;99.90;;;;;;5035838;28;20400;-70
2022/01/23 06:36:45;;;;;;;36.83;20.03;;;5.50;99.90;;;;;;5041100;28;20490;-70
2022/01/23 06:39:12;;;;;;;37.23;19.30;;;5.50;99.90;;;;;;5030935;28;20421;-70
2022/01/23 06:41:39;;;;;;;37.60;18.97;;;5.60;99.90;;;;;;5026436;28;20440;-70
2022/01/23 06:44:06;;;;;;;36.70;20.63;;;5.60;99.90;;;;;;5026947;28;20421;-71
2022/01/23 06:46:33;;;;;;;41.67;21.47;;;5.60;99.90;;;;;;5024133;28;20492;-70
2022/01/23 06:48:59;;;;;;;44.27;21.37;;;5.60;99.90;;;;;;5027566;28;20448;-70
2022/01/23 06:51:24;;;;;;;36.20;20.10;;;5.60;99.90;;;;;;5027271;28;20966;-70
2022/01/23 06:53:51;;;;;;;44.30;20.07;;;5.30;99.90;;;;;;5025226;28;20420;-70
2022/01/23 06:56:17;;;;;;;37.60;20.67;;;5.60;99.90;;;;;;5025203;28;20780;-70
2022/01/23 06:58:42;;;;;;;35.60;19.33;;;5.60;99.90;;;;;;5027665;28;20451;-70
2022/01/23 07:01:09;;;;;;;37.07;20.30;;;5.60;99.90;;;;;;5026370;28;20194;-70
2022/01/23 07:03:35;;;;;;;39.87;21.27;;;5.60;99.90;;;;;;5030960;28;20238;-70
2022/01/23 07:06:00;;;;;;;37.57;21.40;;;5.60;99.90;;;;;;5032617;28;20409;-70
2022/01/23 07:08:26;;;;;;;37.27;20.47;;;5.60;99.90;;;;;;5027364;28;20443;-72
2022/01/23 07:10:52;;;;;;;38.10;20.20;;;5.60;99.90;;;;;;5026461;28;20221;-71
2022/01/23 07:13:18;;;;;;;47.30;24.53;;;5.60;99.90;;;;;;5027561;28;20178;-70
2022/01/23 07:15:43;;;;;;;60.47;30.93;;;5.60;99.90;;;;;;5026375;28;20182;-70
2022/01/23 07:18:09;;;;;;;60.43;31.77;;;5.50;99.90;;;;;;5027676;28;20675;-70
2022/01/23 07:20:35;;;;;;;57.47;28.60;;;5.50;99.90;;;;;;5024591;28;20213;-70
2022/01/23 07:23:01;;;;;;;48.10;23.93;;;5.50;99.90;;;;;;5031030;28;20177;-70
2022/01/23 07:25:26;;;;;;;45.60;22.83;;;5.50;99.90;;;;;;5030419;28;20522;-70
2022/01/23 07:27:55;;;;;;;43.83;22.67;;;5.40;99.90;;;;;;5030713;28;20262;-70
2022/01/23 07:30:33;;;;;;;39.13;22.03;;;5.50;99.90;;;;;;5029213;28;20706;-69
2022/01/23 07:32:58;;;;;;;40.17;23.17;;;5.50;99.90;;;;;;5027872;28;20774;-70
2022/01/23 07:35:24;;;;;;;38.13;21.80;;;5.30;99.90;;;;;;5038625;28;20486;-71
2022/01/23 07:37:49;;;;;;;35.80;19.90;;;5.60;99.90;;;;;;5029231;28;20166;-70
2022/01/23 07:40:15;;;;;;;38.53;21.60;;;5.70;99.90;;;;;;5030877;28;20628;-70
2022/01/23 07:42:41;;;;;;;38.60;21.23;;;5.70;99.90;;;;;;5029468;28;20174;-71
2022/01/23 07:45:07;;;;;;;39.40;21.60;;;;;;;;;;5029152;28;20421;-71
2022/01/23 07:47:33;;;;;;;41.20;20.70;;;;;;;;;;5034627;28;20463;-72
2022/01/23 07:50:01;;;;;;;36.80;21.40;;;;;;;;;;5037713;28;20471;-72
2022/01/23 07:52:30;;;;;;;36.70;20.30;;;;;;;;;;5036302;28;20420;-72
2022/01/23 07:54:56;;;;;;;37.87;20.30;;;5.90;99.90;;;;;;5037307;28;20505;-73
2022/01/23 07:57:22;;;;;;;38.77;21.20;;;5.90;99.90;;;;;;5037590;28;20459;-72
2022/01/23 07:59:47;;;;;;;37.70;20.63;;;5.90;99.90;;;;;;5045575;28;20423;-73
2022/01/23 08:02:13;;;;;;;39.17;20.83;;;6.10;99.90;;;;;;5029200;28;20627;-70
2022/01/23 08:04:39;;;;;;;34.17;18.87;;;6.10;99.90;;;;;;5030311;28;20186;-71
2022/01/23 08:07:22;;;;;;;40.40;21.03;;;6.00;99.90;;;;;;5029145;28;20166;-70
2022/01/23 08:09:47;;;;;;;34.63;19.60;;;6.00;99.90;;;;;;5028705;28;20471;-71
2022/01/23 08:12:14;;;;;;;37.60;20.13;;;6.00;99.90;;;;;;5027589;28;20456;-71
2022/01/23 08:14:40;;;;;;;39.00;21.27;;;5.90;99.90;;;;;;5024968;28;20413;-71
2022/01/23 08:17:05;;;;;;;39.00;20.93;;;6.00;99.90;;;;;;5029287;28;20249;-71
2022/01/23 08:19:31;;;;;;;37.80;21.50;;;6.00;99.90;;;;;;5028995;28;20642;-71
2022/01/23 08:21:56;;;;;;;38.10;21.27;;;6.00;99.90;;;;;;5029968;28;20232;-70
2022/01/23 08:24:23;;;;;;;39.33;22.00;;;6.00;99.90;;;;;;5030061;28;20202;-71
2022/01/23 08:26:48;;;;;;;41.77;19.77;;;6.00;99.90;;;;;;5027691;28;20189;-71
2022/01/23 08:29:14;;;;;;;39.53;20.97;;;6.00;99.90;;;;;;5044421;28;20459;-71
2022/01/23 08:31:39;;;;;;;41.00;21.87;;;6.00;99.90;;;;;;5026554;28;20206;-72
2022/01/23 08:34:05;;;;;;;35.70;21.13;;;6.00;99.90;;;;;;5029281;28;20182;-71
2022/01/23 08:36:33;;;;;;;42.00;21.90;;;6.10;99.90;;;;;;5032373;28;20181;-71
2022/01/23 08:39:00;;;;;;;42.80;21.50;;;6.10;99.90;;;;;;5028671;28;20238;-74
2022/01/23 08:44:10;;;;;;;39.17;21.63;;;6.20;99.90;;;;;;5028566;28;20497;-72
2022/01/23 08:46:36;;;;;;;40.73;21.90;;;6.20;99.90;;;;;;5033075;28;20431;-72
2022/01/23 08:49:01;;;;;;;43.60;22.57;;;6.10;99.90;;;;;;5034290;28;20209;-71
2022/01/23 08:51:27;;;;;;;39.23;21.60;;;6.20;99.90;;;;;;5029005;28;20206;-72
2022/01/23 08:53:52;;;;;;;40.33;20.70;;;6.30;99.90;;;;;;5029582;28;20331;-71
2022/01/23 08:56:18;;;;;;;41.97;21.17;;;6.30;99.90;;;;;;5028116;28;20232;-74
2022/01/23 08:58:43;;;;;;;40.87;20.87;;;6.20;99.90;;;;;;5026565;28;20210;-71
2022/01/23 09:01:09;;;;;;;39.20;21.03;;;;;;;;;;5027018;28;20288;-71
2022/01/23 09:03:35;;;;;;;37.63;20.67;;;6.30;99.90;;;;;;5034780;28;20178;-71
2022/01/23 09:06:00;;;;;;;46.97;23.10;;;6.40;99.90;;;;;;5027161;28;20508;-71
2022/01/23 09:08:26;;;;;;;41.53;20.93;;;6.40;99.90;;;;;;5029550;28;20269;-71
2022/01/23 09:10:54;;;;;;;43.40;21.93;;;6.40;99.90;;;;;;5028932;28;20659;-71
2022/01/23 09:13:50;;;;;;;35.17;20.00;;;6.50;99.90;;;;;;5028506;28;20181;-72
2022/01/23 09:16:17;;;;;;;38.90;20.80;;;6.40;99.90;;;;;;5029357;28;20412;-72
2022/01/23 09:18:42;;;;;;;37.17;20.33;;;6.40;99.90;;;;;;5028921;28;20849;-71
2022/01/23 09:21:08;;;;;;;41.70;20.97;;;6.40;99.90;;;;;;5029809;28;20606;-71
2022/01/23 09:23:34;;;;;;;39.40;22.10;;;6.40;99.90;;;;;;5033347;28;20227;-70
2022/01/23 09:26:07;;;;;;;48.87;23.30;;;6.50;99.90;;;;;;5040523;28;20234;-71
2022/01/23 09:28:33;;;;;;;40.93;21.77;;;6.60;99.90;;;;;;5049742;28;20176;-71
2022/01/23 09:31:01;;;;;;;41.97;20.37;;;6.60;99.90;;;;;;5048958;28;20466;-72
2022/01/23 09:33:27;;;;;;;40.43;21.73;;;6.60;99.90;;;;;;5047783;28;20416;-69
2022/01/23 09:35:53;;;;;;;43.30;22.27;;;6.60;99.90;;;;;;5049110;28;20423;-71
2022/01/23 09:38:19;;;;;;;36.50;21.70;;;6.70;99.90;;;;;;5036728;28;20412;-71
2022/01/23 09:40:46;;;;;;;34.83;20.90;;;6.80;99.90;;;;;;5028505;28;20588;-71
2022/01/23 09:43:17;;;;;;;35.30;20.43;;;6.90;99.90;;;;;;5028111;28;20420;-72
2022/01/23 09:45:46;;;;;;;38.87;21.60;;;6.90;99.90;;;;;;5031768;28;20440;-71
2022/01/23 09:48:12;;;;;;;45.80;22.00;;;7.00;99.90;;;;;;5029059;28;20435;-71
2022/01/23 09:50:37;;;;;;;37.93;20.20;;;7.10;99.90;;;;;;5028827;28;20456;-72
2022/01/23 09:53:05;;;;;;;38.83;21.20;;;7.10;99.90;;;;;;5028989;28;20186;-71
2022/01/23 09:55:32;;;;;;;41.20;21.00;;;7.00;99.90;;;;;;5043479;28;20185;-73
2022/01/23 09:57:59;;;;;;;42.67;22.10;;;7.00;99.90;;;;;;5023333;28;20432;-71
2022/01/23 10:00:27;;;;;;;38.47;21.40;;;7.10;99.90;;;;;;5026396;28;20436;-70
2022/01/23 10:02:53;;;;;;;40.77;21.03;;;7.00;99.90;;;;;;5026687;28;20501;-71
2022/01/23 10:05:19;;;;;;;38.13;21.97;;;7.10;99.90;;;;;;5028893;28;20428;-71
2022/01/23 10:07:45;;;;;;;40.20;21.17;;;7.20;99.90;;;;;;5028286;28;20181;-71
2022/01/23 10:10:18;;;;;;;39.30;22.70;;;7.30;99.90;;;;;;5027251;28;20464;-71
2022/01/23 10:12:50;;;;;;;34.60;20.60;;;7.30;99.90;;;;;;5026614;28;20180;-73
2022/01/23 10:15:17;;;;;;;40.33;22.00;;;7.40;99.90;;;;;;5027976;28;20938;-72
2022/01/23 10:17:43;;;;;;;39.47;21.60;;;7.50;99.90;;;;;;5028480;28;20427;-71
2022/01/23 10:20:11;;;;;;;45.83;23.40;;;7.50;99.90;;;;;;5015806;28;20413;-71
2022/01/23 10:22:37;;;;;;;40.20;22.90;;;7.50;99.90;;;;;;5025650;28;20427;-71
2022/01/23 10:25:15;;;;;;;39.07;21.87;;;7.60;99.90;;;;;;5036303;28;20674;-71
2022/01/23 10:28:02;;;;;;;37.47;21.63;;;7.60;99.90;;;;;;5023893;28;20891;-72
2022/01/23 10:30:33;;;;;;;41.03;23.23;;;7.70;99.90;;;;;;5028344;28;20525;-71
2022/01/23 10:33:04;;;;;;;42.50;22.23;;;7.80;99.90;;;;;;5023403;28;20775;-71
2022/01/23 10:35:32;;;;;;;44.73;22.33;;;7.70;99.90;;;;;;5027902;28;20435;-72
2022/01/23 10:38:05;;;;;;;41.53;21.60;;;7.80;99.90;;;;;;5027265;28;20799;-72
2022/01/23 10:40:35;;;;;;;41.87;22.67;;;7.70;99.90;;;;;;5028172;28;20428;-72
2022/01/23 10:48:35;;;;;;;37.57;22.60;;;7.80;99.90;;;;;;5008785;28;20578;-72
2022/01/23 10:51:26;;;;;;;38.60;22.53;;;7.90;99.90;;;;;;5014410;28;20520;-71
2022/01/23 10:54:09;;;;;;;41.43;22.63;;;7.90;99.90;;;;;;5036014;28;20983;-71
2022/01/23 10:56:57;;;;;;;45.90;22.40;;;8.00;99.90;;;;;;5035800;28;20407;-72
2022/01/23 10:59:24;;;;;;;39.00;22.63;;;8.00;99.90;;;;;;5053061;28;20827;-71
2022/01/23 11:02:11;;;;;;;43.60;23.07;;;7.90;99.90;;;;;;5040302;28;20456;-71
2022/01/23 11:05:00;;;;;;;41.33;23.53;;;7.90;99.90;;;;;;5026606;28;20824;-71
2022/01/23 11:07:28;;;;;;;45.80;23.70;;;7.80;99.90;;;;;;5024226;28;20942;-72
2022/01/23 11:10:03;;;;;;;38.80;21.70;;;7.80;99.90;;;;;;5025995;28;20542;-71
2022/01/23 11:18:12;;;;;;;36.53;20.73;;;7.50;99.90;;;;;;5028732;28;20948;-72
2022/01/23 11:20:43;;;;;;;37.70;21.27;;;8.00;99.90;;;;;;5031185;28;20424;-71
2022/01/23 11:23:19;;;;;;;38.07;21.40;;;8.10;99.90;;;;;;5029465;28;20504;-71
2022/01/23 11:25:52;;;;;;;38.30;21.17;;;8.20;99.90;;;;;;5031512;28;20428;-72
2022/01/23 11:28:18;;;;;;;36.87;21.20;;;8.10;99.90;;;;;;5030159;28;20432;-71
2022/01/23 11:30:46;;;;;;;33.90;20.37;;;8.10;99.90;;;;;;5030571;28;20959;-71
2022/01/23 11:33:17;;;;;;;35.80;20.73;;;8.10;99.90;;;;;;5029961;28;20572;-72
2022/01/23 11:35:42;;;;;;;36.30;20.77;;;8.00;99.90;;;;;;5024946;28;20452;-71
2022/01/23 11:38:14;;;;;;;35.87;21.50;;;8.00;99.90;;;;;;5030410;28;20885;-70
2022/01/23 11:54:03;;;;;;;33.27;20.10;;;8.40;99.90;;;;;;5030576;28;20520;-71
2022/01/23 11:56:33;;;;;;;35.93;20.03;;;8.60;99.90;;;;;;5029949;28;20416;-72
2022/01/23 11:59:24;;;;;;;37.57;20.60;;;8.40;99.90;;;;;;5030740;28;20443;-71
2022/01/23 12:02:12;;;;;;;35.20;20.87;;;8.40;99.90;;;;;;5028488;28;20472;-72
2022/01/23 12:05:10;;;;;;;34.60;20.13;;;8.40;99.90;;;;;;5028123;28;20477;-71
2022/01/23 12:07:36;;;;;;;35.20;20.00;;;;;;;;;;5023676;28;20420;-71
2022/01/23 12:10:37;;;;;;;35.17;21.17;;;8.50;99.90;;;;;;5029818;28;20475;-72
2022/01/23 12:13:34;;;;;;;37.93;21.20;;;8.50;99.90;;;;;;5027491;28;20774;-71
2022/01/23 12:18:47;;;;;;;35.27;20.37;;;8.70;99.90;;;;;;5024876;28;20407;-71
2022/01/23 12:21:30;;;;;;;35.03;20.50;;;9.00;99.90;;;;;;5019193;28;20464;-71
2022/01/23 12:23:58;;;;;;;36.30;21.40;;;9.00;99.90;;;;;;5028032;28;20871;-71
2022/01/23 12:26:24;;;;;;;43.80;24.80;;;;;;;;;;5027601;28;20449;-71
2022/01/23 12:28:49;;;;;;;33.40;20.30;;;9.10;99.90;;;;;;5028545;28;20408;-70
2022/01/23 12:31:15;;;;;;;33.43;19.13;;;9.10;99.90;;;;;;5028751;28;20272;-72
2022/01/23 12:33:43;;;;;;;36.77;23.00;;;9.10;99.90;;;;;;5034908;28;20217;-71
2022/01/23 12:36:14;;;;;;;35.10;20.00;;;9.20;99.90;;;;;;5028733;28;20182;-72
2022/01/23 12:38:44;;;;;;;35.07;20.20;;;9.30;99.90;;;;;;5029161;28;20413;-71
2022/01/23 12:41:23;;;;;;;35.43;20.40;;;9.60;99.90;;;;;;5024973;28;20503;-72
2022/01/23 12:43:51;;;;;;;32.83;19.43;;;9.60;99.90;;;;;;5009786;28;20780;-72
2022/01/23 12:46:25;;;;;;;33.67;20.20;;;9.60;99.90;;;;;;5025557;28;20921;-71
2022/01/23 12:48:51;;;;;;;33.13;20.40;;;9.50;99.90;;;;;;5026645;28;20981;-71
2022/01/23 12:51:19;;;;;;;36.77;21.00;;;9.50;99.90;;;;;;5028622;28;20536;-71
2022/01/23 12:53:48;;;;;;;33.83;19.80;;;9.50;99.90;;;;;;5028704;28;20406;-72
2022/01/23 12:56:22;;;;;;;32.73;19.50;;;9.50;99.90;;;;;;5028032;28;20407;-72
2022/01/23 12:58:59;;;;;;;35.87;22.73;;;9.60;99.90;;;;;;5029355;28;20457;-71
2022/01/23 13:01:28;;;;;;;36.07;22.10;;;10.10;99.90;;;;;;5028348;28;20444;-71
2022/01/23 13:03:56;;;;;;;32.10;19.40;;;10.20;99.90;;;;;;5031967;28;20413;-71
2022/01/23 13:06:33;;;;;;;38.20;21.37;;;10.30;99.90;;;;;;5032135;28;20914;-71
2022/01/23 13:09:15;;;;;;;31.93;19.57;;;10.40;99.90;;;;;;5024903;28;20432;-72
2022/01/23 13:12:09;;;;;;;34.10;20.50;;;10.40;99.90;;;;;;5028575;28;20890;-72
2022/01/23 13:15:10;;;;;;;31.40;19.53;;;10.60;99.90;;;;;;5029287;28;20397;-73
2022/01/23 13:31:16;;;;;;;32.60;20.30;;;11.20;99.90;;;;;;5028344;28;20458;-71
2022/01/23 13:33:41;;;;;;;33.00;19.60;;;11.20;99.90;;;;;;5028941;28;20234;-71
2022/01/23 13:36:09;;;;;;;33.42;21.30;;;11.00;99.90;;;;;;5026926;28;20460;-72
2022/01/23 13:38:36;;;;;;;36.77;22.10;;;11.20;99.90;;;;;;5026404;28;20177;-72
2022/01/23 13:41:13;;;;;;;40.43;23.73;;;10.90;99.90;;;;;;5028316;28;20435;-73
2022/01/23 13:52:35;;;;;;;35.57;20.17;;;10.90;99.90;;;;;;5024075;28;20455;-73
2022/01/23 13:58:09;;;;;;;34.17;20.73;;;11.00;99.90;;;;;;5026071;28;20426;-72
2022/01/23 14:00:32;;;;;;;37.73;23.77;;;10.90;99.90;;;;;;5008301;28;20500;-71
2022/01/23 14:02:58;;;;;;;36.87;22.13;;;10.80;99.90;;;;;;5021499;28;20841;-72
2022/01/23 14:05:33;;;;;;;33.43;21.10;;;10.70;99.90;;;;;;5035433;28;20191;-73
2022/01/23 14:08:02;;;;;;;36.30;22.00;;;10.60;99.90;;;;;;5026387;28;20247;-72
2022/01/23 14:10:36;;;;;;;35.10;22.80;;;10.40;99.90;;;;;;5026892;28;20472;-72
2022/01/23 14:13:15;;;;;;;41.53;23.97;;;10.30;99.90;;;;;;5027892;28;20564;-72
2022/01/23 14:15:46;;;;;;;37.93;23.00;;;10.30;99.90;;;;;;5006884;28;20420;-72
2022/01/23 14:18:14;;;;;;;37.20;23.23;;;10.20;99.90;;;;;;5027794;28;20421;-71
2022/01/23 14:20:43;;;;;;;40.20;23.00;;;10.00;99.90;;;;;;5028819;28;20632;-72
2022/01/23 14:23:17;;;;;;;38.80;24.57;;;9.90;99.90;;;;;;5027933;28;20421;-72
2022/01/23 14:25:45;;;;;;;39.87;22.87;;;9.80;99.90;;;;;;5008110;28;20499;-72
2022/01/23 14:28:14;;;;;;;38.10;22.60;;;9.50;99.90;;;;;;5025925;28;20433;-71
2022/01/23 14:30:55;;;;;;;37.73;22.03;;;9.60;99.90;;;;;;5027617;28;20464;-71
2022/01/23 14:33:25;;;;;;;38.30;22.80;;;9.60;99.90;;;;;;5025914;28;21008;-71
2022/01/23 14:35:51;;;;;;;41.67;24.40;;;9.50;99.90;;;;;;5027094;28;20696;-71
2022/01/23 14:38:20;;;;;;;39.43;24.13;;;9.40;99.90;;;;;;5036511;28;20416;-71
2022/01/23 14:41:03;;;;;;;41.70;23.83;;;9.20;99.90;;;;;;5047617;28;20489;-71
2022/01/23 14:43:40;;;;;;;40.20;23.67;;;9.20;99.90;;;;;;5027519;28;20514;-71
2022/01/23 14:46:08;;;;;;;42.37;25.23;;;9.10;99.90;;;;;;5027599;28;20417;-71
2022/01/23 14:48:48;;;;;;;43.30;22.30;;;9.10;99.90;;;;;;5027914;28;20509;-71
2022/01/23 14:51:19;;;;;;;39.80;23.37;;;8.90;99.90;;;;;;5027986;28;20456;-71
2022/01/23 14:53:44;;;;;;;42.03;24.53;;;8.90;99.90;;;;;;5027795;28;20432;-71
2022/01/23 14:56:13;;;;;;;39.83;23.57;;;8.80;99.90;;;;;;5027297;28;20771;-71
2022/01/23 14:58:39;;;;;;;37.10;21.90;;;8.80;99.90;;;;;;5028097;28;20567;-71
2022/01/23 15:01:10;;;;;;;38.50;21.43;;;8.70;99.90;;;;;;5027597;28;20448;-71
2022/01/23 15:03:36;;;;;;;37.03;21.17;;;8.70;99.90;;;;;;5027838;28;20424;-71
2022/01/23 15:06:02;;;;;;;36.10;19.97;;;8.60;99.90;;;;;;5027622;28;20486;-72
2022/01/23 15:08:29;;;;;;;36.03;20.20;;;9.10;99.90;;;;;;5037965;28;20447;-72
2022/01/23 15:10:57;;;;;;;34.80;19.87;;;8.80;99.90;;;;;;5036098;28;20536;-71
2022/01/23 15:13:23;;;;;;;35.43;20.70;;;8.70;99.90;;;;;;5027513;28;20452;-70
2022/01/23 15:15:50;;;;;;;39.70;21.23;;;8.60;99.90;;;;;;5027268;28;20575;-71
2022/01/23 15:18:16;;;;;;;37.00;20.47;;;8.60;99.90;;;;;;5028212;28;20533;-71
2022/01/23 15:20:43;;;;;;;37.20;22.20;;;8.60;99.90;;;;;;5027717;28;20468;-70
2022/01/23 15:23:09;;;;;;;41.03;22.90;;;8.60;99.90;;;;;;5026518;28;20521;-71
2022/01/23 15:25:35;;;;;;;36.27;21.70;;;8.50;99.90;;;;;;5026112;28;20420;-72
2022/01/23 15:28:01;;;;;;;38.77;20.87;;;8.40;99.90;;;;;;5027263;28;21259;-70
2022/01/23 15:30:27;;;;;;;32.73;20.20;;;8.30;99.90;;;;;;5026982;28;20554;-72
2022/01/23 15:32:56;;;;;;;36.70;20.87;;;8.30;99.90;;;;;;5026294;28;20644;-71
2022/01/23 15:35:25;;;;;;;40.70;22.60;;;8.40;99.90;;;;;;5027430;28;20432;-71
2022/01/23 15:37:51;;;;;;;37.97;22.23;;;8.20;99.90;;;;;;5027769;28;20408;-72
2022/01/23 15:40:21;;;;;;;43.60;23.90;;;8.00;99.90;;;;;;5028121;28;20424;-72
2022/01/23 15:42:50;;;;;;;41.93;24.23;;;8.00;99.90;;;;;;5026697;28;20563;-72
2022/01/23 15:45:17;;;;;;;44.53;25.13;;;8.00;99.90;;;;;;5030691;28;20405;-73
2022/01/23 15:47:43;;;;;;;47.07;26.03;;;8.00;99.90;;;;;;5029225;28;21019;-73
2022/01/23 15:50:10;;;;;;;45.80;26.37;;;7.90;99.90;;;;;;5028831;28;20494;-72
2022/01/23 15:52:37;;;;;;;43.63;27.07;;;7.90;99.90;;;;;;5035464;28;20178;-72
2022/01/23 15:55:03;;;;;;;45.70;26.53;;;7.90;99.90;;;;;;5030900;28;20408;-72
2022/01/23 15:57:29;;;;;;;47.10;27.63;;;7.90;99.90;;;;;;5029670;28;20429;-72
2022/01/23 15:59:54;;;;;;;48.30;27.30;;;7.90;99.90;;;;;;5031359;28;20412;-72
2022/01/23 16:02:20;;;;;;;47.10;27.60;;;7.80;99.90;;;;;;5029956;28;20198;-72
2022/01/23 16:04:45;;;;;;;52.80;29.87;;;7.80;99.90;;;;;;5031463;28;20219;-72
2022/01/23 16:07:16;;;;;;;50.90;27.87;;;7.60;99.90;;;;;;5031485;28;20277;-71
2022/01/23 16:09:46;;;;;;;45.63;27.27;;;7.60;99.90;;;;;;5037645;28;20215;-72
2022/01/23 16:12:14;;;;;;;53.40;28.67;;;7.60;99.90;;;;;;5029600;28;20448;-71
2022/01/23 16:14:40;;;;;;;57.47;28.43;;;7.60;99.90;;;;;;5030945;28;20408;-72
2022/01/23 16:17:06;;;;;;;56.93;30.10;;;7.50;99.90;;;;;;5029891;28;20420;-72
2022/01/23 16:19:32;;;;;;;52.93;30.70;;;7.60;99.90;;;;;;5022639;28;20178;-71
2022/01/23 16:21:58;;;;;;;57.00;32.73;;;7.60;99.90;;;;;;5030310;28;20544;-71
2022/01/23 16:24:24;;;;;;;63.23;33.17;;;7.50;99.90;;;;;;5030023;28;20176;-71